sensor_id;sensor_type;location;lat;lon;timestamp;P1;durP1;ratioP1;P2;durP2;ratioP2
38629;SDS011;24384;51.988;4.644;2022-08-02T00:02:24;6.10;;;2.25;;
38629;SDS011;24384;51.988;4.644;2022-08-02T00:04:50;8.57;;;2.22;;
38629;SDS011;24384;51.988;4.644;2022-08-02T00:07:15;13.40;;;2.53;;
38629;SDS011;24384;51.988;4.644;2022-08-02T00:09:41;4.57;;;1.80;;
38629;SDS011;24384;51.988;4.644;2022-08-02T00:12:08;6.10;;;1.90;;
38629;SDS011;24384;51.988;4.644;2022-08-02T00:14:34;9.93;;;2.10;;
38629;SDS011;24384;51.988;4.644;2022-08-02T00:16:59;11.18;;;1.95;;
38629;SDS011;24384;51.988;4.644;2022-08-02T00:19:24;4.47;;;1.85;;
38629;SDS011;24384;51.988;4.644;2022-08-02T00:21:50;7.65;;;1.70;;
38629;SDS011;24384;51.988;4.644;2022-08-02T00:24:15;4.93;;;1.90;;
38629;SDS011;24384;51.988;4.644;2022-08-02T00:26:41;7.10;;;2.03;;
38629;SDS011;24384;51.988;4.644;2022-08-02T00:29:06;6.60;;;2.22;;
38629;SDS011;24384;51.988;4.644;2022-08-02T00:31:32;4.82;;;1.70;;
38629;SDS011;24384;51.988;4.644;2022-08-02T00:33:59;8.32;;;1.88;;
38629;SDS011;24384;51.988;4.644;2022-08-02T00:36:24;8.48;;;2.00;;
38629;SDS011;24384;51.988;4.644;2022-08-02T00:38:49;6.75;;;2.15;;
38629;SDS011;24384;51.988;4.644;2022-08-02T00:41:18;6.20;;;1.80;;
38629;SDS011;24384;51.988;4.644;2022-08-02T00:43:47;7.55;;;1.85;;
38629;SDS011;24384;51.988;4.644;2022-08-02T00:46:14;5.63;;;2.10;;
38629;SDS011;24384;51.988;4.644;2022-08-02T00:48:40;6.32;;;2.35;;
38629;SDS011;24384;51.988;4.644;2022-08-02T00:51:06;8.15;;;1.90;;
38629;SDS011;24384;51.988;4.644;2022-08-02T00:53:31;6.80;;;2.22;;
38629;SDS011;24384;51.988;4.644;2022-08-02T00:55:57;7.88;;;2.10;;
38629;SDS011;24384;51.988;4.644;2022-08-02T00:58:23;6.20;;;2.42;;
38629;SDS011;24384;51.988;4.644;2022-08-02T01:00:48;9.20;;;2.33;;
38629;SDS011;24384;51.988;4.644;2022-08-02T01:03:14;5.85;;;2.28;;
38629;SDS011;24384;51.988;4.644;2022-08-02T01:05:40;10.75;;;2.35;;
38629;SDS011;24384;51.988;4.644;2022-08-02T01:08:05;5.32;;;2.42;;
38629;SDS011;24384;51.988;4.644;2022-08-02T01:10:31;7.38;;;2.10;;
38629;SDS011;24384;51.988;4.644;2022-08-02T01:12:56;7.53;;;2.28;;
38629;SDS011;24384;51.988;4.644;2022-08-02T01:15:22;10.95;;;2.45;;
38629;SDS011;24384;51.988;4.644;2022-08-02T01:17:53;6.72;;;2.25;;
38629;SDS011;24384;51.988;4.644;2022-08-02T01:26:31;6.82;;;2.30;;
38629;SDS011;24384;51.988;4.644;2022-08-02T01:34:40;6.90;;;2.20;;
38629;SDS011;24384;51.988;4.644;2022-08-02T01:40:09;5.07;;;2.20;;
38629;SDS011;24384;51.988;4.644;2022-08-02T01:42:39;7.53;;;2.78;;
38629;SDS011;24384;51.988;4.644;2022-08-02T01:45:10;5.82;;;2.47;;
38629;SDS011;24384;51.988;4.644;2022-08-02T01:47:38;6.95;;;2.40;;
38629;SDS011;24384;51.988;4.644;2022-08-02T01:50:06;13.13;;;3.08;;
38629;SDS011;24384;51.988;4.644;2022-08-02T01:52:36;7.55;;;2.80;;
38629;SDS011;24384;51.988;4.644;2022-08-02T01:55:24;5.82;;;2.80;;
38629;SDS011;24384;51.988;4.644;2022-08-02T01:57:54;6.28;;;3.20;;
38629;SDS011;24384;51.988;4.644;2022-08-02T02:00:24;8.35;;;3.03;;
38629;SDS011;24384;51.988;4.644;2022-08-02T02:02:53;8.45;;;2.83;;
38629;SDS011;24384;51.988;4.644;2022-08-02T02:05:22;5.65;;;2.75;;
38629;SDS011;24384;51.988;4.644;2022-08-02T02:07:50;8.35;;;2.83;;
38629;SDS011;24384;51.988;4.644;2022-08-02T02:10:21;6.90;;;2.63;;
38629;SDS011;24384;51.988;4.644;2022-08-02T02:12:55;8.85;;;3.30;;
38629;SDS011;24384;51.988;4.644;2022-08-02T02:15:22;9.73;;;2.83;;
38629;SDS011;24384;51.988;4.644;2022-08-02T02:17:50;6.40;;;2.60;;
38629;SDS011;24384;51.988;4.644;2022-08-02T02:20:17;10.05;;;2.78;;
38629;SDS011;24384;51.988;4.644;2022-08-02T02:22:44;6.03;;;2.80;;
38629;SDS011;24384;51.988;4.644;2022-08-02T02:25:11;10.48;;;3.13;;
38629;SDS011;24384;51.988;4.644;2022-08-02T02:27:38;6.43;;;3.08;;
38629;SDS011;24384;51.988;4.644;2022-08-02T02:30:12;10.70;;;2.95;;
38629;SDS011;24384;51.988;4.644;2022-08-02T02:32:38;6.18;;;3.03;;
38629;SDS011;24384;51.988;4.644;2022-08-02T02:35:06;7.25;;;2.60;;
38629;SDS011;24384;51.988;4.644;2022-08-02T02:37:33;7.85;;;2.63;;
38629;SDS011;24384;51.988;4.644;2022-08-02T02:39:59;6.20;;;2.58;;
38629;SDS011;24384;51.988;4.644;2022-08-02T02:42:30;5.30;;;2.40;;
38629;SDS011;24384;51.988;4.644;2022-08-02T02:44:57;5.32;;;2.80;;
38629;SDS011;24384;51.988;4.644;2022-08-02T02:47:24;8.18;;;2.58;;
38629;SDS011;24384;51.988;4.644;2022-08-02T02:49:53;12.93;;;2.85;;
38629;SDS011;24384;51.988;4.644;2022-08-02T02:52:21;7.20;;;2.30;;
38629;SDS011;24384;51.988;4.644;2022-08-02T02:54:48;4.90;;;2.33;;
38629;SDS011;24384;51.988;4.644;2022-08-02T02:57:16;6.63;;;2.15;;
38629;SDS011;24384;51.988;4.644;2022-08-02T02:59:42;6.57;;;2.05;;
38629;SDS011;24384;51.988;4.644;2022-08-02T03:02:08;7.90;;;2.10;;
38629;SDS011;24384;51.988;4.644;2022-08-02T03:04:35;5.53;;;2.17;;
38629;SDS011;24384;51.988;4.644;2022-08-02T03:07:01;4.82;;;1.92;;
38629;SDS011;24384;51.988;4.644;2022-08-02T03:09:27;4.50;;;1.75;;
38629;SDS011;24384;51.988;4.644;2022-08-02T03:11:53;9.00;;;2.20;;
38629;SDS011;24384;51.988;4.644;2022-08-02T03:14:20;9.68;;;2.22;;
38629;SDS011;24384;51.988;4.644;2022-08-02T03:16:46;6.00;;;2.53;;
38629;SDS011;24384;51.988;4.644;2022-08-02T03:19:14;6.90;;;1.70;;
38629;SDS011;24384;51.988;4.644;2022-08-02T03:21:41;9.02;;;2.10;;
38629;SDS011;24384;51.988;4.644;2022-08-02T03:24:07;4.78;;;1.95;;
38629;SDS011;24384;51.988;4.644;2022-08-02T03:26:33;4.60;;;1.90;;
38629;SDS011;24384;51.988;4.644;2022-08-02T03:28:59;4.75;;;1.92;;
38629;SDS011;24384;51.988;4.644;2022-08-02T03:31:24;3.70;;;1.92;;
38629;SDS011;24384;51.988;4.644;2022-08-02T03:33:50;5.00;;;1.73;;
38629;SDS011;24384;51.988;4.644;2022-08-02T03:36:16;5.72;;;1.65;;
38629;SDS011;24384;51.988;4.644;2022-08-02T03:38:45;6.38;;;1.98;;
38629;SDS011;24384;51.988;4.644;2022-08-02T03:41:12;5.22;;;1.83;;
38629;SDS011;24384;51.988;4.644;2022-08-02T03:43:40;7.60;;;1.77;;
38629;SDS011;24384;51.988;4.644;2022-08-02T03:46:08;5.68;;;1.60;;
38629;SDS011;24384;51.988;4.644;2022-08-02T03:48:34;4.72;;;1.80;;
38629;SDS011;24384;51.988;4.644;2022-08-02T03:51:01;3.67;;;1.52;;
38629;SDS011;24384;51.988;4.644;2022-08-02T03:53:27;4.72;;;1.90;;
38629;SDS011;24384;51.988;4.644;2022-08-02T03:55:53;6.03;;;1.92;;
38629;SDS011;24384;51.988;4.644;2022-08-02T03:58:19;5.55;;;1.73;;
38629;SDS011;24384;51.988;4.644;2022-08-02T04:00:46;8.63;;;2.38;;
38629;SDS011;24384;51.988;4.644;2022-08-02T04:03:12;5.13;;;1.98;;
38629;SDS011;24384;51.988;4.644;2022-08-02T04:05:37;5.32;;;1.83;;
38629;SDS011;24384;51.988;4.644;2022-08-02T04:08:03;5.00;;;2.00;;
38629;SDS011;24384;51.988;4.644;2022-08-02T04:10:29;5.97;;;2.20;;
38629;SDS011;24384;51.988;4.644;2022-08-02T04:12:54;6.03;;;2.15;;
38629;SDS011;24384;51.988;4.644;2022-08-02T04:15:20;4.00;;;2.08;;
38629;SDS011;24384;51.988;4.644;2022-08-02T04:17:54;8.25;;;2.63;;
38629;SDS011;24384;51.988;4.644;2022-08-02T04:20:26;7.45;;;1.92;;
38629;SDS011;24384;51.988;4.644;2022-08-02T04:23:00;4.75;;;2.00;;
38629;SDS011;24384;51.988;4.644;2022-08-02T04:25:30;6.60;;;2.05;;
38629;SDS011;24384;51.988;4.644;2022-08-02T04:27:57;6.75;;;2.17;;
38629;SDS011;24384;51.988;4.644;2022-08-02T04:30:24;5.72;;;1.95;;
38629;SDS011;24384;51.988;4.644;2022-08-02T04:32:50;6.40;;;2.33;;
38629;SDS011;24384;51.988;4.644;2022-08-02T04:35:16;5.97;;;1.90;;
38629;SDS011;24384;51.988;4.644;2022-08-02T04:37:41;3.88;;;1.83;;
38629;SDS011;24384;51.988;4.644;2022-08-02T04:40:11;8.50;;;2.20;;
38629;SDS011;24384;51.988;4.644;2022-08-02T04:42:37;6.28;;;2.13;;
38629;SDS011;24384;51.988;4.644;2022-08-02T04:45:04;5.70;;;2.00;;
38629;SDS011;24384;51.988;4.644;2022-08-02T04:47:30;5.30;;;1.92;;
38629;SDS011;24384;51.988;4.644;2022-08-02T04:49:56;7.40;;;2.05;;
38629;SDS011;24384;51.988;4.644;2022-08-02T04:52:21;4.88;;;2.03;;
38629;SDS011;24384;51.988;4.644;2022-08-02T04:54:47;6.72;;;2.50;;
38629;SDS011;24384;51.988;4.644;2022-08-02T04:57:12;4.60;;;1.95;;
38629;SDS011;24384;51.988;4.644;2022-08-02T04:59:56;6.18;;;2.30;;
38629;SDS011;24384;51.988;4.644;2022-08-02T05:02:22;6.47;;;2.22;;
38629;SDS011;24384;51.988;4.644;2022-08-02T05:04:47;7.25;;;2.10;;
38629;SDS011;24384;51.988;4.644;2022-08-02T05:07:12;5.80;;;2.17;;
38629;SDS011;24384;51.988;4.644;2022-08-02T05:09:38;5.57;;;1.98;;
38629;SDS011;24384;51.988;4.644;2022-08-02T05:12:03;5.43;;;2.28;;
38629;SDS011;24384;51.988;4.644;2022-08-02T05:14:29;11.82;;;2.60;;
38629;SDS011;24384;51.988;4.644;2022-08-02T05:16:54;6.55;;;2.35;;
38629;SDS011;24384;51.988;4.644;2022-08-02T05:19:20;6.25;;;2.50;;
38629;SDS011;24384;51.988;4.644;2022-08-02T05:21:45;6.90;;;2.53;;
38629;SDS011;24384;51.988;4.644;2022-08-02T05:24:11;6.25;;;2.28;;
38629;SDS011;24384;51.988;4.644;2022-08-02T05:26:37;13.27;;;2.47;;
38629;SDS011;24384;51.988;4.644;2022-08-02T05:29:02;7.40;;;2.72;;
38629;SDS011;24384;51.988;4.644;2022-08-02T05:31:28;6.10;;;2.47;;
38629;SDS011;24384;51.988;4.644;2022-08-02T05:33:54;7.50;;;2.95;;
38629;SDS011;24384;51.988;4.644;2022-08-02T05:36:19;7.35;;;2.60;;
38629;SDS011;24384;51.988;4.644;2022-08-02T05:38:45;6.90;;;2.58;;
38629;SDS011;24384;51.988;4.644;2022-08-02T05:41:10;5.68;;;2.35;;
38629;SDS011;24384;51.988;4.644;2022-08-02T05:43:36;7.05;;;2.65;;
38629;SDS011;24384;51.988;4.644;2022-08-02T05:46:01;6.50;;;2.65;;
38629;SDS011;24384;51.988;4.644;2022-08-02T05:48:27;7.25;;;2.35;;
38629;SDS011;24384;51.988;4.644;2022-08-02T05:50:58;7.78;;;2.47;;
38629;SDS011;24384;51.988;4.644;2022-08-02T05:53:35;5.35;;;2.30;;
38629;SDS011;24384;51.988;4.644;2022-08-02T05:56:08;6.20;;;2.80;;
38629;SDS011;24384;51.988;4.644;2022-08-02T06:01:20;9.15;;;3.60;;
38629;SDS011;24384;51.988;4.644;2022-08-02T06:03:51;8.35;;;3.45;;
38629;SDS011;24384;51.988;4.644;2022-08-02T06:06:20;8.18;;;3.30;;
38629;SDS011;24384;51.988;4.644;2022-08-02T06:08:54;7.70;;;3.20;;
38629;SDS011;24384;51.988;4.644;2022-08-02T06:11:23;10.02;;;3.40;;
38629;SDS011;24384;51.988;4.644;2022-08-02T06:13:56;7.57;;;3.72;;
38629;SDS011;24384;51.988;4.644;2022-08-02T06:16:22;10.13;;;3.90;;
38629;SDS011;24384;51.988;4.644;2022-08-02T06:18:50;9.15;;;4.28;;
38629;SDS011;24384;51.988;4.644;2022-08-02T06:21:17;9.10;;;4.60;;
38629;SDS011;24384;51.988;4.644;2022-08-02T06:23:46;8.25;;;4.82;;
38629;SDS011;24384;51.988;4.644;2022-08-02T06:26:12;12.32;;;5.07;;
38629;SDS011;24384;51.988;4.644;2022-08-02T06:28:40;12.23;;;5.13;;
38629;SDS011;24384;51.988;4.644;2022-08-02T06:31:07;12.15;;;6.47;;
38629;SDS011;24384;51.988;4.644;2022-08-02T06:33:41;16.15;;;5.85;;
38629;SDS011;24384;51.988;4.644;2022-08-02T06:36:14;10.82;;;6.80;;
38629;SDS011;24384;51.988;4.644;2022-08-02T06:41:44;15.80;;;8.75;;
38629;SDS011;24384;51.988;4.644;2022-08-02T06:44:13;16.42;;;8.73;;
38629;SDS011;24384;51.988;4.644;2022-08-02T06:46:39;15.77;;;8.82;;
38629;SDS011;24384;51.988;4.644;2022-08-02T06:49:06;17.75;;;9.13;;
38629;SDS011;24384;51.988;4.644;2022-08-02T06:51:35;16.17;;;9.60;;
38629;SDS011;24384;51.988;4.644;2022-08-02T06:56:49;17.45;;;9.85;;
38629;SDS011;24384;51.988;4.644;2022-08-02T06:59:14;16.83;;;10.45;;
38629;SDS011;24384;51.988;4.644;2022-08-02T07:01:40;17.77;;;10.43;;
38629;SDS011;24384;51.988;4.644;2022-08-02T07:04:08;30.13;;;11.73;;
38629;SDS011;24384;51.988;4.644;2022-08-02T07:06:34;18.23;;;11.30;;
38629;SDS011;24384;51.988;4.644;2022-08-02T07:09:00;20.08;;;11.93;;
38629;SDS011;24384;51.988;4.644;2022-08-02T07:11:25;19.65;;;11.40;;
38629;SDS011;24384;51.988;4.644;2022-08-02T07:13:50;17.90;;;11.88;;
38629;SDS011;24384;51.988;4.644;2022-08-02T07:16:16;17.75;;;11.20;;
38629;SDS011;24384;51.988;4.644;2022-08-02T07:18:41;17.23;;;11.50;;
38629;SDS011;24384;51.988;4.644;2022-08-02T07:21:07;22.13;;;11.30;;
38629;SDS011;24384;51.988;4.644;2022-08-02T07:23:47;17.42;;;10.80;;
38629;SDS011;24384;51.988;4.644;2022-08-02T07:26:12;20.08;;;11.93;;
38629;SDS011;24384;51.988;4.644;2022-08-02T07:28:37;16.48;;;10.32;;
38629;SDS011;24384;51.988;4.644;2022-08-02T07:31:03;16.98;;;9.52;;
38629;SDS011;24384;51.988;4.644;2022-08-02T07:33:28;14.48;;;9.07;;
38629;SDS011;24384;51.988;4.644;2022-08-02T07:35:54;14.30;;;9.60;;
38629;SDS011;24384;51.988;4.644;2022-08-02T07:38:21;13.95;;;9.52;;
38629;SDS011;24384;51.988;4.644;2022-08-02T07:40:48;12.40;;;9.20;;
38629;SDS011;24384;51.988;4.644;2022-08-02T07:43:14;14.77;;;8.82;;
38629;SDS011;24384;51.988;4.644;2022-08-02T07:45:39;16.38;;;9.18;;
38629;SDS011;24384;51.988;4.644;2022-08-02T07:48:05;14.95;;;9.85;;
38629;SDS011;24384;51.988;4.644;2022-08-02T07:50:32;15.63;;;9.98;;
38629;SDS011;24384;51.988;4.644;2022-08-02T07:52:58;14.65;;;9.35;;
38629;SDS011;24384;51.988;4.644;2022-08-02T07:55:24;13.10;;;9.43;;
38629;SDS011;24384;51.988;4.644;2022-08-02T07:57:49;15.43;;;9.30;;
38629;SDS011;24384;51.988;4.644;2022-08-02T08:00:16;17.10;;;9.00;;
38629;SDS011;24384;51.988;4.644;2022-08-02T08:02:41;14.32;;;9.45;;
38629;SDS011;24384;51.988;4.644;2022-08-02T08:05:08;14.68;;;9.95;;
38629;SDS011;24384;51.988;4.644;2022-08-02T08:07:34;13.10;;;9.52;;
38629;SDS011;24384;51.988;4.644;2022-08-02T08:09:59;15.70;;;9.38;;
38629;SDS011;24384;51.988;4.644;2022-08-02T08:12:25;15.20;;;9.10;;
38629;SDS011;24384;51.988;4.644;2022-08-02T08:14:51;13.25;;;9.68;;
38629;SDS011;24384;51.988;4.644;2022-08-02T08:17:16;12.52;;;8.60;;
38629;SDS011;24384;51.988;4.644;2022-08-02T08:19:42;14.75;;;7.78;;
38629;SDS011;24384;51.988;4.644;2022-08-02T08:22:07;14.85;;;8.80;;
38629;SDS011;24384;51.988;4.644;2022-08-02T08:24:32;17.00;;;8.63;;
38629;SDS011;24384;51.988;4.644;2022-08-02T08:26:58;15.40;;;8.88;;
38629;SDS011;24384;51.988;4.644;2022-08-02T08:29:23;15.75;;;9.77;;
38629;SDS011;24384;51.988;4.644;2022-08-02T08:31:50;11.68;;;8.45;;
38629;SDS011;24384;51.988;4.644;2022-08-02T08:34:16;12.07;;;8.45;;
38629;SDS011;24384;51.988;4.644;2022-08-02T08:36:41;13.73;;;7.20;;
38629;SDS011;24384;51.988;4.644;2022-08-02T08:39:07;12.02;;;8.00;;
38629;SDS011;24384;51.988;4.644;2022-08-02T08:41:34;14.32;;;9.00;;
38629;SDS011;24384;51.988;4.644;2022-08-02T08:44:00;11.25;;;7.47;;
38629;SDS011;24384;51.988;4.644;2022-08-02T08:46:27;10.70;;;6.50;;
38629;SDS011;24384;51.988;4.644;2022-08-02T08:49:05;8.70;;;6.05;;
38629;SDS011;24384;51.988;4.644;2022-08-02T08:51:36;9.00;;;6.22;;
38629;SDS011;24384;51.988;4.644;2022-08-02T08:54:05;10.23;;;5.55;;
38629;SDS011;24384;51.988;4.644;2022-08-02T08:56:35;12.77;;;6.90;;
38629;SDS011;24384;51.988;4.644;2022-08-02T08:59:02;10.27;;;6.97;;
38629;SDS011;24384;51.988;4.644;2022-08-02T09:01:28;11.57;;;6.88;;
38629;SDS011;24384;51.988;4.644;2022-08-02T09:03:54;9.55;;;6.70;;
38629;SDS011;24384;51.988;4.644;2022-08-02T09:06:20;10.32;;;6.13;;
38629;SDS011;24384;51.988;4.644;2022-08-02T09:08:46;11.00;;;6.65;;
38629;SDS011;24384;51.988;4.644;2022-08-02T09:11:16;11.15;;;6.45;;
38629;SDS011;24384;51.988;4.644;2022-08-02T09:16:26;11.27;;;6.15;;
38629;SDS011;24384;51.988;4.644;2022-08-02T09:21:50;6.97;;;5.18;;
38629;SDS011;24384;51.988;4.644;2022-08-02T09:27:12;8.63;;;5.75;;
38629;SDS011;24384;51.988;4.644;2022-08-02T09:29:39;12.50;;;5.55;;
38629;SDS011;24384;51.988;4.644;2022-08-02T09:32:09;8.57;;;5.32;;
38629;SDS011;24384;51.988;4.644;2022-08-02T09:34:44;8.52;;;5.35;;
38629;SDS011;24384;51.988;4.644;2022-08-02T09:37:26;11.15;;;4.60;;
38629;SDS011;24384;51.988;4.644;2022-08-02T09:39:53;8.90;;;5.45;;
38629;SDS011;24384;51.988;4.644;2022-08-02T09:42:20;9.30;;;5.05;;
38629;SDS011;24384;51.988;4.644;2022-08-02T09:44:58;10.77;;;5.20;;
38629;SDS011;24384;51.988;4.644;2022-08-02T09:47:25;11.60;;;5.30;;
38629;SDS011;24384;51.988;4.644;2022-08-02T09:49:52;8.27;;;5.15;;
38629;SDS011;24384;51.988;4.644;2022-08-02T09:52:25;7.55;;;4.28;;
38629;SDS011;24384;51.988;4.644;2022-08-02T09:54:55;6.93;;;4.78;;
38629;SDS011;24384;51.988;4.644;2022-08-02T09:57:28;8.70;;;5.10;;
38629;SDS011;24384;51.988;4.644;2022-08-02T09:59:54;14.02;;;4.53;;
38629;SDS011;24384;51.988;4.644;2022-08-02T10:02:21;8.50;;;4.47;;
38629;SDS011;24384;51.988;4.644;2022-08-02T10:04:46;7.72;;;4.28;;
38629;SDS011;24384;51.988;4.644;2022-08-02T10:07:12;13.27;;;5.10;;
38629;SDS011;24384;51.988;4.644;2022-08-02T10:09:38;7.55;;;4.85;;
38629;SDS011;24384;51.988;4.644;2022-08-02T10:12:04;12.90;;;4.95;;
38629;SDS011;24384;51.988;4.644;2022-08-02T10:14:31;9.88;;;3.97;;
38629;SDS011;24384;51.988;4.644;2022-08-02T10:16:57;11.60;;;3.95;;
38629;SDS011;24384;51.988;4.644;2022-08-02T10:19:24;10.38;;;3.85;;
38629;SDS011;24384;51.988;4.644;2022-08-02T10:21:57;6.68;;;3.85;;
38629;SDS011;24384;51.988;4.644;2022-08-02T10:24:35;6.07;;;3.38;;
38629;SDS011;24384;51.988;4.644;2022-08-02T10:27:02;8.32;;;3.72;;
38629;SDS011;24384;51.988;4.644;2022-08-02T10:29:37;8.05;;;3.22;;
38629;SDS011;24384;51.988;4.644;2022-08-02T10:32:07;8.82;;;4.45;;
38629;SDS011;24384;51.988;4.644;2022-08-02T10:34:36;6.25;;;3.83;;
38629;SDS011;24384;51.988;4.644;2022-08-02T10:37:07;7.53;;;4.45;;
38629;SDS011;24384;51.988;4.644;2022-08-02T10:39:39;14.35;;;4.28;;
38629;SDS011;24384;51.988;4.644;2022-08-02T10:42:05;8.30;;;4.18;;
38629;SDS011;24384;51.988;4.644;2022-08-02T10:44:31;9.88;;;4.10;;
38629;SDS011;24384;51.988;4.644;2022-08-02T10:49:47;10.40;;;4.78;;
38629;SDS011;24384;51.988;4.644;2022-08-02T10:52:13;8.48;;;4.10;;
38629;SDS011;24384;51.988;4.644;2022-08-02T10:54:43;8.60;;;4.40;;
38629;SDS011;24384;51.988;4.644;2022-08-02T10:57:17;10.23;;;4.75;;
38629;SDS011;24384;51.988;4.644;2022-08-02T11:02:10;9.75;;;3.60;;
38629;SDS011;24384;51.988;4.644;2022-08-02T11:07:17;7.95;;;3.10;;
38629;SDS011;24384;51.988;4.644;2022-08-02T11:09:48;6.60;;;3.92;;
38629;SDS011;24384;51.988;4.644;2022-08-02T11:12:15;6.50;;;3.63;;
38629;SDS011;24384;51.988;4.644;2022-08-02T11:14:43;7.10;;;3.88;;
38629;SDS011;24384;51.988;4.644;2022-08-02T11:20:12;5.70;;;3.00;;
38629;SDS011;24384;51.988;4.644;2022-08-02T11:22:32;10.77;;;3.22;;
38629;SDS011;24384;51.988;4.644;2022-08-02T11:25:28;5.18;;;2.30;;
38629;SDS011;24384;51.988;4.644;2022-08-02T11:27:50;4.53;;;2.20;;
38629;SDS011;24384;51.988;4.644;2022-08-02T11:30:17;6.47;;;2.47;;
38629;SDS011;24384;51.988;4.644;2022-08-02T11:32:43;13.75;;;2.50;;
38629;SDS011;24384;51.988;4.644;2022-08-02T11:35:09;5.88;;;2.25;;
38629;SDS011;24384;51.988;4.644;2022-08-02T11:37:35;7.70;;;2.28;;
38629;SDS011;24384;51.988;4.644;2022-08-02T11:40:12;6.97;;;3.08;;
38629;SDS011;24384;51.988;4.644;2022-08-02T11:42:44;6.43;;;3.13;;
38629;SDS011;24384;51.988;4.644;2022-08-02T11:45:14;5.65;;;3.33;;
38629;SDS011;24384;51.988;4.644;2022-08-02T11:50:13;7.93;;;3.33;;
38629;SDS011;24384;51.988;4.644;2022-08-02T11:52:39;9.82;;;3.10;;
38629;SDS011;24384;51.988;4.644;2022-08-02T11:55:05;11.45;;;3.50;;
38629;SDS011;24384;51.988;4.644;2022-08-02T11:57:32;11.32;;;3.95;;
38629;SDS011;24384;51.988;4.644;2022-08-02T11:59:58;5.45;;;2.92;;
38629;SDS011;24384;51.988;4.644;2022-08-02T12:02:25;6.50;;;2.45;;
38629;SDS011;24384;51.988;4.644;2022-08-02T12:04:59;7.38;;;4.22;;
38629;SDS011;24384;51.988;4.644;2022-08-02T12:10:01;8.13;;;3.65;;
38629;SDS011;24384;51.988;4.644;2022-08-02T12:12:49;10.68;;;3.42;;
38629;SDS011;24384;51.988;4.644;2022-08-02T12:15:32;10.25;;;4.40;;
38629;SDS011;24384;51.988;4.644;2022-08-02T12:18:12;7.82;;;2.70;;
38629;SDS011;24384;51.988;4.644;2022-08-02T12:23:44;7.35;;;3.28;;
38629;SDS011;24384;51.988;4.644;2022-08-02T12:26:09;12.32;;;2.80;;
38629;SDS011;24384;51.988;4.644;2022-08-02T12:28:41;4.05;;;2.97;;
38629;SDS011;24384;51.988;4.644;2022-08-02T12:31:07;8.95;;;2.67;;
38629;SDS011;24384;51.988;4.644;2022-08-02T12:33:49;11.68;;;2.70;;
38629;SDS011;24384;51.988;4.644;2022-08-02T12:36:21;6.65;;;3.03;;
38629;SDS011;24384;51.988;4.644;2022-08-02T12:38:52;3.58;;;1.88;;
38629;SDS011;24384;51.988;4.644;2022-08-02T12:41:19;6.10;;;2.30;;
38629;SDS011;24384;51.988;4.644;2022-08-02T12:43:44;5.35;;;2.40;;
38629;SDS011;24384;51.988;4.644;2022-08-02T12:46:17;7.97;;;2.65;;
38629;SDS011;24384;51.988;4.644;2022-08-02T12:48:44;6.32;;;2.80;;
38629;SDS011;24384;51.988;4.644;2022-08-02T12:54:13;6.20;;;2.67;;
38629;SDS011;24384;51.988;4.644;2022-08-02T12:56:43;6.15;;;2.40;;
38629;SDS011;24384;51.988;4.644;2022-08-02T12:59:10;7.30;;;2.85;;
38629;SDS011;24384;51.988;4.644;2022-08-02T13:01:37;10.15;;;3.10;;
38629;SDS011;24384;51.988;4.644;2022-08-02T13:04:02;7.50;;;2.63;;
38629;SDS011;24384;51.988;4.644;2022-08-02T13:06:28;8.77;;;2.30;;
38629;SDS011;24384;51.988;4.644;2022-08-02T13:08:53;7.53;;;2.20;;
38629;SDS011;24384;51.988;4.644;2022-08-02T13:11:20;4.43;;;2.05;;
38629;SDS011;24384;51.988;4.644;2022-08-02T13:13:46;6.45;;;1.67;;
38629;SDS011;24384;51.988;4.644;2022-08-02T13:16:12;5.00;;;1.90;;
38629;SDS011;24384;51.988;4.644;2022-08-02T13:18:38;6.55;;;1.83;;
38629;SDS011;24384;51.988;4.644;2022-08-02T13:21:04;5.82;;;1.80;;
38629;SDS011;24384;51.988;4.644;2022-08-02T13:23:31;7.03;;;2.10;;
38629;SDS011;24384;51.988;4.644;2022-08-02T13:25:57;6.63;;;2.38;;
38629;SDS011;24384;51.988;4.644;2022-08-02T13:28:22;9.85;;;1.85;;
38629;SDS011;24384;51.988;4.644;2022-08-02T13:30:48;6.22;;;1.88;;
38629;SDS011;24384;51.988;4.644;2022-08-02T13:33:14;9.80;;;2.28;;
38629;SDS011;24384;51.988;4.644;2022-08-02T13:35:42;7.35;;;2.30;;
38629;SDS011;24384;51.988;4.644;2022-08-02T13:38:09;8.98;;;1.83;;
38629;SDS011;24384;51.988;4.644;2022-08-02T13:40:35;8.95;;;1.88;;
38629;SDS011;24384;51.988;4.644;2022-08-02T13:43:24;5.10;;;1.70;;
38629;SDS011;24384;51.988;4.644;2022-08-02T13:45:50;4.95;;;1.80;;
38629;SDS011;24384;51.988;4.644;2022-08-02T13:48:16;10.00;;;1.90;;
38629;SDS011;24384;51.988;4.644;2022-08-02T13:50:42;7.13;;;1.85;;
38629;SDS011;24384;51.988;4.644;2022-08-02T13:53:08;6.72;;;1.70;;
38629;SDS011;24384;51.988;4.644;2022-08-02T13:55:33;6.97;;;1.25;;
38629;SDS011;24384;51.988;4.644;2022-08-02T13:57:59;11.88;;;1.60;;
38629;SDS011;24384;51.988;4.644;2022-08-02T14:00:25;11.50;;;2.33;;
38629;SDS011;24384;51.988;4.644;2022-08-02T14:02:50;9.23;;;1.75;;
38629;SDS011;24384;51.988;4.644;2022-08-02T14:05:16;5.00;;;1.48;;
38629;SDS011;24384;51.988;4.644;2022-08-02T14:07:41;6.70;;;1.95;;
38629;SDS011;24384;51.988;4.644;2022-08-02T14:10:07;12.57;;;1.60;;
38629;SDS011;24384;51.988;4.644;2022-08-02T14:12:33;8.48;;;1.50;;
38629;SDS011;24384;51.988;4.644;2022-08-02T14:14:58;8.00;;;1.70;;
38629;SDS011;24384;51.988;4.644;2022-08-02T14:17:23;9.55;;;1.55;;
38629;SDS011;24384;51.988;4.644;2022-08-02T14:19:49;6.97;;;1.63;;
38629;SDS011;24384;51.988;4.644;2022-08-02T14:22:15;5.15;;;1.42;;
38629;SDS011;24384;51.988;4.644;2022-08-02T14:24:42;8.75;;;1.90;;
38629;SDS011;24384;51.988;4.644;2022-08-02T14:27:07;7.65;;;1.55;;
38629;SDS011;24384;51.988;4.644;2022-08-02T14:29:33;5.70;;;1.70;;
38629;SDS011;24384;51.988;4.644;2022-08-02T14:31:59;7.60;;;1.60;;
38629;SDS011;24384;51.988;4.644;2022-08-02T14:34:25;11.98;;;1.70;;
38629;SDS011;24384;51.988;4.644;2022-08-02T14:36:50;5.63;;;1.70;;
38629;SDS011;24384;51.988;4.644;2022-08-02T14:39:15;7.55;;;1.58;;
38629;SDS011;24384;51.988;4.644;2022-08-02T14:41:42;6.63;;;1.60;;
38629;SDS011;24384;51.988;4.644;2022-08-02T14:44:07;8.82;;;1.85;;
38629;SDS011;24384;51.988;4.644;2022-08-02T14:46:37;5.47;;;1.20;;
38629;SDS011;24384;51.988;4.644;2022-08-02T14:49:07;7.97;;;1.90;;
38629;SDS011;24384;51.988;4.644;2022-08-02T14:51:37;9.07;;;1.58;;
38629;SDS011;24384;51.988;4.644;2022-08-02T14:54:03;5.95;;;1.55;;
38629;SDS011;24384;51.988;4.644;2022-08-02T14:56:30;9.65;;;2.35;;
38629;SDS011;24384;51.988;4.644;2022-08-02T14:58:56;11.32;;;1.98;;
38629;SDS011;24384;51.988;4.644;2022-08-02T15:01:21;6.97;;;1.52;;
38629;SDS011;24384;51.988;4.644;2022-08-02T15:03:47;6.15;;;1.58;;
38629;SDS011;24384;51.988;4.644;2022-08-02T15:06:13;13.23;;;2.13;;
38629;SDS011;24384;51.988;4.644;2022-08-02T15:08:38;6.55;;;1.48;;
38629;SDS011;24384;51.988;4.644;2022-08-02T15:11:03;9.07;;;1.55;;
38629;SDS011;24384;51.988;4.644;2022-08-02T15:13:29;7.13;;;1.70;;
38629;SDS011;24384;51.988;4.644;2022-08-02T15:15:54;6.55;;;1.50;;
38629;SDS011;24384;51.988;4.644;2022-08-02T15:18:20;5.88;;;1.33;;
38629;SDS011;24384;51.988;4.644;2022-08-02T15:20:46;6.25;;;1.63;;
38629;SDS011;24384;51.988;4.644;2022-08-02T15:23:15;7.13;;;1.45;;
38629;SDS011;24384;51.988;4.644;2022-08-02T15:25:41;7.35;;;1.45;;
38629;SDS011;24384;51.988;4.644;2022-08-02T15:28:07;8.68;;;2.03;;
38629;SDS011;24384;51.988;4.644;2022-08-02T15:30:33;10.25;;;1.08;;
38629;SDS011;24384;51.988;4.644;2022-08-02T15:33:04;7.40;;;1.45;;
38629;SDS011;24384;51.988;4.644;2022-08-02T15:35:29;8.70;;;1.77;;
38629;SDS011;24384;51.988;4.644;2022-08-02T15:37:55;8.32;;;1.42;;
38629;SDS011;24384;51.988;4.644;2022-08-02T15:40:21;11.90;;;1.77;;